sensor_id;sensor_type;location;lat;lon;timestamp;P1;durP1;ratioP1;P2;durP2;ratioP2
12511;SDS011;6321;53.798;10.382;2022-07-24T00:01:40;4.67;;;3.80;;
12511;SDS011;6321;53.798;10.382;2022-07-24T00:04:06;4.53;;;3.50;;
12511;SDS011;6321;53.798;10.382;2022-07-24T00:06:32;4.27;;;3.87;;
12511;SDS011;6321;53.798;10.382;2022-07-24T00:08:59;4.13;;;3.50;;
12511;SDS011;6321;53.798;10.382;2022-07-24T00:11:25;5.43;;;4.17;;
12511;SDS011;6321;53.798;10.382;2022-07-24T00:13:51;4.80;;;3.77;;
12511;SDS011;6321;53.798;10.382;2022-07-24T00:16:17;4.30;;;3.90;;
12511;SDS011;6321;53.798;10.382;2022-07-24T00:18:43;4.50;;;3.97;;
12511;SDS011;6321;53.798;10.382;2022-07-24T00:21:08;3.50;;;3.20;;
12511;SDS011;6321;53.798;10.382;2022-07-24T00:23:34;6.93;;;3.87;;
12511;SDS011;6321;53.798;10.382;2022-07-24T00:26:00;4.53;;;4.13;;
12511;SDS011;6321;53.798;10.382;2022-07-24T00:28:27;6.77;;;4.20;;
12511;SDS011;6321;53.798;10.382;2022-07-24T00:30:53;4.60;;;4.00;;
12511;SDS011;6321;53.798;10.382;2022-07-24T00:33:18;4.13;;;3.73;;
12511;SDS011;6321;53.798;10.382;2022-07-24T00:35:44;5.60;;;4.13;;
12511;SDS011;6321;53.798;10.382;2022-07-24T00:38:10;5.50;;;3.80;;
12511;SDS011;6321;53.798;10.382;2022-07-24T00:40:36;6.43;;;4.23;;
12511;SDS011;6321;53.798;10.382;2022-07-24T00:43:02;4.33;;;3.73;;
12511;SDS011;6321;53.798;10.382;2022-07-24T00:45:29;7.33;;;3.77;;
12511;SDS011;6321;53.798;10.382;2022-07-24T00:47:55;6.37;;;3.93;;
12511;SDS011;6321;53.798;10.382;2022-07-24T00:50:21;4.20;;;3.90;;
12511;SDS011;6321;53.798;10.382;2022-07-24T00:52:47;4.67;;;3.40;;
12511;SDS011;6321;53.798;10.382;2022-07-24T00:55:13;4.00;;;3.60;;
12511;SDS011;6321;53.798;10.382;2022-07-24T00:57:39;7.03;;;4.53;;
12511;SDS011;6321;53.798;10.382;2022-07-24T01:00:09;4.63;;;4.23;;
12511;SDS011;6321;53.798;10.382;2022-07-24T01:02:35;4.47;;;4.10;;
12511;SDS011;6321;53.798;10.382;2022-07-24T01:05:04;4.43;;;4.03;;
12511;SDS011;6321;53.798;10.382;2022-07-24T01:07:30;3.97;;;3.67;;
12511;SDS011;6321;53.798;10.382;2022-07-24T01:09:56;5.23;;;3.80;;
12511;SDS011;6321;53.798;10.382;2022-07-24T01:12:22;5.70;;;3.83;;
12511;SDS011;6321;53.798;10.382;2022-07-24T01:14:48;4.80;;;4.40;;
12511;SDS011;6321;53.798;10.382;2022-07-24T01:17:14;4.13;;;3.73;;
12511;SDS011;6321;53.798;10.382;2022-07-24T01:19:40;4.13;;;3.83;;
12511;SDS011;6321;53.798;10.382;2022-07-24T01:22:06;5.00;;;3.97;;
12511;SDS011;6321;53.798;10.382;2022-07-24T01:24:32;4.77;;;4.07;;
12511;SDS011;6321;53.798;10.382;2022-07-24T01:26:58;7.00;;;4.63;;
12511;SDS011;6321;53.798;10.382;2022-07-24T01:29:24;6.27;;;4.17;;
12511;SDS011;6321;53.798;10.382;2022-07-24T01:31:50;5.57;;;4.00;;
12511;SDS011;6321;53.798;10.382;2022-07-24T01:34:16;4.67;;;3.80;;
12511;SDS011;6321;53.798;10.382;2022-07-24T01:36:42;4.50;;;4.13;;
12511;SDS011;6321;53.798;10.382;2022-07-24T01:39:08;4.20;;;3.80;;
12511;SDS011;6321;53.798;10.382;2022-07-24T01:41:34;4.47;;;4.07;;
12511;SDS011;6321;53.798;10.382;2022-07-24T01:43:59;4.70;;;3.83;;
12511;SDS011;6321;53.798;10.382;2022-07-24T01:46:25;4.60;;;3.67;;
12511;SDS011;6321;53.798;10.382;2022-07-24T01:48:51;4.10;;;3.60;;
12511;SDS011;6321;53.798;10.382;2022-07-24T01:51:17;4.20;;;3.90;;
12511;SDS011;6321;53.798;10.382;2022-07-24T01:53:43;5.83;;;4.20;;
12511;SDS011;6321;53.798;10.382;2022-07-24T01:56:09;4.10;;;3.63;;
12511;SDS011;6321;53.798;10.382;2022-07-24T01:58:35;4.23;;;3.83;;
12511;SDS011;6321;53.798;10.382;2022-07-24T02:01:04;4.63;;;3.77;;
12511;SDS011;6321;53.798;10.382;2022-07-24T02:03:30;6.00;;;3.90;;
12511;SDS011;6321;53.798;10.382;2022-07-24T02:05:56;4.43;;;3.53;;
12511;SDS011;6321;53.798;10.382;2022-07-24T02:08:22;4.00;;;3.70;;
12511;SDS011;6321;53.798;10.382;2022-07-24T02:10:47;5.23;;;3.47;;
12511;SDS011;6321;53.798;10.382;2022-07-24T02:13:13;4.57;;;4.10;;
12511;SDS011;6321;53.798;10.382;2022-07-24T02:15:39;4.23;;;3.93;;
12511;SDS011;6321;53.798;10.382;2022-07-24T02:18:06;4.30;;;3.80;;
12511;SDS011;6321;53.798;10.382;2022-07-24T02:20:32;5.77;;;3.67;;
12511;SDS011;6321;53.798;10.382;2022-07-24T02:22:58;5.93;;;3.70;;
12511;SDS011;6321;53.798;10.382;2022-07-24T02:25:24;6.50;;;3.63;;
12511;SDS011;6321;53.798;10.382;2022-07-24T02:27:49;3.57;;;3.30;;
12511;SDS011;6321;53.798;10.382;2022-07-24T02:30:17;5.20;;;3.30;;
12511;SDS011;6321;53.798;10.382;2022-07-24T02:32:43;3.43;;;3.10;;
12511;SDS011;6321;53.798;10.382;2022-07-24T02:35:09;4.37;;;3.70;;
12511;SDS011;6321;53.798;10.382;2022-07-24T02:37:36;6.00;;;4.07;;
12511;SDS011;6321;53.798;10.382;2022-07-24T02:40:02;4.17;;;3.77;;
12511;SDS011;6321;53.798;10.382;2022-07-24T02:42:28;4.13;;;3.73;;
12511;SDS011;6321;53.798;10.382;2022-07-24T02:44:54;3.57;;;2.90;;
12511;SDS011;6321;53.798;10.382;2022-07-24T02:47:21;3.40;;;3.10;;
12511;SDS011;6321;53.798;10.382;2022-07-24T02:49:47;4.07;;;3.00;;
12511;SDS011;6321;53.798;10.382;2022-07-24T02:52:12;3.33;;;3.07;;
12511;SDS011;6321;53.798;10.382;2022-07-24T02:54:38;3.63;;;3.33;;
12511;SDS011;6321;53.798;10.382;2022-07-24T02:57:04;5.00;;;3.30;;
12511;SDS011;6321;53.798;10.382;2022-07-24T02:59:31;4.43;;;4.03;;
12511;SDS011;6321;53.798;10.382;2022-07-24T03:01:56;5.17;;;3.60;;
12511;SDS011;6321;53.798;10.382;2022-07-24T03:04:22;6.53;;;4.50;;
12511;SDS011;6321;53.798;10.382;2022-07-24T03:06:48;4.77;;;3.60;;
12511;SDS011;6321;53.798;10.382;2022-07-24T03:09:14;5.43;;;4.00;;
12511;SDS011;6321;53.798;10.382;2022-07-24T03:11:40;8.53;;;3.67;;
12511;SDS011;6321;53.798;10.382;2022-07-24T03:14:06;3.50;;;3.20;;
12511;SDS011;6321;53.798;10.382;2022-07-24T03:16:32;3.30;;;3.00;;
12511;SDS011;6321;53.798;10.382;2022-07-24T03:18:58;3.53;;;3.23;;
12511;SDS011;6321;53.798;10.382;2022-07-24T03:21:24;3.40;;;3.10;;
12511;SDS011;6321;53.798;10.382;2022-07-24T03:23:50;3.70;;;3.40;;
12511;SDS011;6321;53.798;10.382;2022-07-24T03:26:16;6.00;;;3.67;;
12511;SDS011;6321;53.798;10.382;2022-07-24T03:28:42;4.80;;;4.40;;
12511;SDS011;6321;53.798;10.382;2022-07-24T03:31:08;5.53;;;4.00;;
12511;SDS011;6321;53.798;10.382;2022-07-24T03:33:34;5.40;;;4.73;;
12511;SDS011;6321;53.798;10.382;2022-07-24T03:36:00;5.00;;;4.60;;
12511;SDS011;6321;53.798;10.382;2022-07-24T03:38:26;5.37;;;4.50;;
12511;SDS011;6321;53.798;10.382;2022-07-24T03:40:52;5.70;;;4.60;;
12511;SDS011;6321;53.798;10.382;2022-07-24T03:43:18;5.10;;;4.47;;
12511;SDS011;6321;53.798;10.382;2022-07-24T03:45:44;4.93;;;4.20;;
12511;SDS011;6321;53.798;10.382;2022-07-24T03:48:10;3.93;;;3.63;;
12511;SDS011;6321;53.798;10.382;2022-07-24T03:50:36;4.33;;;3.87;;
12511;SDS011;6321;53.798;10.382;2022-07-24T03:53:02;4.90;;;4.40;;
12511;SDS011;6321;53.798;10.382;2022-07-24T03:55:28;4.83;;;4.43;;
12511;SDS011;6321;53.798;10.382;2022-07-24T03:57:53;4.50;;;4.13;;
12511;SDS011;6321;53.798;10.382;2022-07-24T04:00:19;5.17;;;4.70;;
12511;SDS011;6321;53.798;10.382;2022-07-24T04:02:45;5.10;;;4.20;;
12511;SDS011;6321;53.798;10.382;2022-07-24T04:05:11;6.97;;;4.70;;
12511;SDS011;6321;53.798;10.382;2022-07-24T04:07:38;4.40;;;4.00;;
12511;SDS011;6321;53.798;10.382;2022-07-24T04:10:05;4.03;;;3.63;;
12511;SDS011;6321;53.798;10.382;2022-07-24T04:12:31;4.30;;;3.90;;
12511;SDS011;6321;53.798;10.382;2022-07-24T04:14:57;4.40;;;4.00;;
12511;SDS011;6321;53.798;10.382;2022-07-24T04:17:23;6.53;;;4.83;;
12511;SDS011;6321;53.798;10.382;2022-07-24T04:19:49;5.43;;;4.77;;
12511;SDS011;6321;53.798;10.382;2022-07-24T04:22:15;5.43;;;4.83;;
12511;SDS011;6321;53.798;10.382;2022-07-24T04:24:41;6.37;;;5.77;;
12511;SDS011;6321;53.798;10.382;2022-07-24T04:27:07;5.80;;;4.97;;
12511;SDS011;6321;53.798;10.382;2022-07-24T04:29:32;9.13;;;5.50;;
12511;SDS011;6321;53.798;10.382;2022-07-24T04:31:58;7.50;;;5.97;;
12511;SDS011;6321;53.798;10.382;2022-07-24T04:34:24;7.57;;;5.30;;
12511;SDS011;6321;53.798;10.382;2022-07-24T04:36:50;7.93;;;7.13;;
12511;SDS011;6321;53.798;10.382;2022-07-24T04:39:16;7.30;;;6.23;;
12511;SDS011;6321;53.798;10.382;2022-07-24T04:41:42;8.40;;;6.70;;
12511;SDS011;6321;53.798;10.382;2022-07-24T04:44:08;9.73;;;7.20;;
12511;SDS011;6321;53.798;10.382;2022-07-24T04:46:34;11.00;;;7.30;;
12511;SDS011;6321;53.798;10.382;2022-07-24T04:49:00;11.07;;;8.30;;
12511;SDS011;6321;53.798;10.382;2022-07-24T04:51:26;11.87;;;8.43;;
12511;SDS011;6321;53.798;10.382;2022-07-24T04:53:52;9.43;;;7.50;;
12511;SDS011;6321;53.798;10.382;2022-07-24T04:56:19;11.90;;;7.63;;
12511;SDS011;6321;53.798;10.382;2022-07-24T04:58:45;9.80;;;7.40;;
12511;SDS011;6321;53.798;10.382;2022-07-24T05:01:11;10.70;;;8.10;;
12511;SDS011;6321;53.798;10.382;2022-07-24T05:03:37;8.43;;;7.53;;
12511;SDS011;6321;53.798;10.382;2022-07-24T05:06:03;11.87;;;8.40;;
12511;SDS011;6321;53.798;10.382;2022-07-24T05:08:28;12.77;;;8.57;;
12511;SDS011;6321;53.798;10.382;2022-07-24T05:10:54;11.23;;;8.40;;
12511;SDS011;6321;53.798;10.382;2022-07-24T05:13:20;11.53;;;9.10;;
12511;SDS011;6321;53.798;10.382;2022-07-24T05:15:46;11.23;;;9.43;;
12511;SDS011;6321;53.798;10.382;2022-07-24T05:18:12;11.40;;;8.90;;
12511;SDS011;6321;53.798;10.382;2022-07-24T05:20:38;11.03;;;8.87;;
12511;SDS011;6321;53.798;10.382;2022-07-24T05:23:04;11.30;;;8.97;;
12511;SDS011;6321;53.798;10.382;2022-07-24T05:25:30;15.67;;;9.90;;
12511;SDS011;6321;53.798;10.382;2022-07-24T05:27:56;11.43;;;9.00;;
12511;SDS011;6321;53.798;10.382;2022-07-24T05:30:22;11.80;;;9.47;;
12511;SDS011;6321;53.798;10.382;2022-07-24T05:32:48;10.23;;;8.20;;
12511;SDS011;6321;53.798;10.382;2022-07-24T05:35:14;11.47;;;8.63;;
12511;SDS011;6321;53.798;10.382;2022-07-24T05:37:40;11.13;;;9.20;;
12511;SDS011;6321;53.798;10.382;2022-07-24T05:40:06;11.60;;;8.87;;
12511;SDS011;6321;53.798;10.382;2022-07-24T05:42:32;10.10;;;8.03;;
12511;SDS011;6321;53.798;10.382;2022-07-24T05:44:58;9.50;;;8.37;;
12511;SDS011;6321;53.798;10.382;2022-07-24T05:47:24;10.57;;;7.63;;
12511;SDS011;6321;53.798;10.382;2022-07-24T05:49:50;8.77;;;7.60;;
12511;SDS011;6321;53.798;10.382;2022-07-24T05:52:16;9.33;;;7.20;;
12511;SDS011;6321;53.798;10.382;2022-07-24T05:54:42;7.80;;;6.33;;
12511;SDS011;6321;53.798;10.382;2022-07-24T05:57:08;10.67;;;6.17;;
12511;SDS011;6321;53.798;10.382;2022-07-24T05:59:34;6.73;;;6.03;;
12511;SDS011;6321;53.798;10.382;2022-07-24T06:01:59;6.37;;;4.93;;
12511;SDS011;6321;53.798;10.382;2022-07-24T06:04:28;7.87;;;5.37;;
12511;SDS011;6321;53.798;10.382;2022-07-24T06:06:54;6.43;;;4.50;;
12511;SDS011;6321;53.798;10.382;2022-07-24T06:09:20;5.50;;;3.90;;
12511;SDS011;6321;53.798;10.382;2022-07-24T06:11:46;4.67;;;4.07;;
12511;SDS011;6321;53.798;10.382;2022-07-24T06:14:12;4.47;;;3.60;;
12511;SDS011;6321;53.798;10.382;2022-07-24T06:16:38;4.23;;;3.10;;
12511;SDS011;6321;53.798;10.382;2022-07-24T06:19:04;5.67;;;4.10;;
12511;SDS011;6321;53.798;10.382;2022-07-24T06:21:30;5.43;;;3.27;;
12511;SDS011;6321;53.798;10.382;2022-07-24T06:23:56;4.53;;;3.47;;
12511;SDS011;6321;53.798;10.382;2022-07-24T06:26:22;5.47;;;3.47;;
12511;SDS011;6321;53.798;10.382;2022-07-24T06:28:48;3.40;;;3.10;;
12511;SDS011;6321;53.798;10.382;2022-07-24T06:31:13;5.13;;;3.50;;
12511;SDS011;6321;53.798;10.382;2022-07-24T06:33:39;5.33;;;3.43;;
12511;SDS011;6321;53.798;10.382;2022-07-24T06:36:05;3.23;;;3.00;;
12511;SDS011;6321;53.798;10.382;2022-07-24T06:38:31;9.53;;;3.37;;
12511;SDS011;6321;53.798;10.382;2022-07-24T06:40:57;3.27;;;2.73;;
12511;SDS011;6321;53.798;10.382;2022-07-24T06:43:23;3.83;;;2.43;;
12511;SDS011;6321;53.798;10.382;2022-07-24T06:45:49;3.60;;;2.60;;
12511;SDS011;6321;53.798;10.382;2022-07-24T06:48:16;3.67;;;2.70;;
12511;SDS011;6321;53.798;10.382;2022-07-24T06:50:42;2.97;;;2.70;;
12511;SDS011;6321;53.798;10.382;2022-07-24T06:53:08;3.07;;;2.30;;
12511;SDS011;6321;53.798;10.382;2022-07-24T06:55:34;2.90;;;2.20;;
12511;SDS011;6321;53.798;10.382;2022-07-24T06:58:00;4.13;;;2.37;;
12511;SDS011;6321;53.798;10.382;2022-07-24T07:00:26;3.93;;;2.40;;
12511;SDS011;6321;53.798;10.382;2022-07-24T07:02:52;2.80;;;2.30;;
12511;SDS011;6321;53.798;10.382;2022-07-24T07:05:18;2.60;;;2.40;;
12511;SDS011;6321;53.798;10.382;2022-07-24T07:07:44;3.77;;;2.20;;
12511;SDS011;6321;53.798;10.382;2022-07-24T07:10:10;2.30;;;2.10;;
12511;SDS011;6321;53.798;10.382;2022-07-24T07:12:36;3.23;;;2.70;;
12511;SDS011;6321;53.798;10.382;2022-07-24T07:15:02;4.03;;;2.50;;
12511;SDS011;6321;53.798;10.382;2022-07-24T07:17:28;4.20;;;2.47;;
12511;SDS011;6321;53.798;10.382;2022-07-24T07:19:54;3.50;;;2.50;;
12511;SDS011;6321;53.798;10.382;2022-07-24T07:22:20;3.40;;;2.30;;
12511;SDS011;6321;53.798;10.382;2022-07-24T07:24:46;3.07;;;2.27;;
12511;SDS011;6321;53.798;10.382;2022-07-24T07:27:12;2.77;;;2.50;;
12511;SDS011;6321;53.798;10.382;2022-07-24T07:29:38;2.87;;;2.30;;
12511;SDS011;6321;53.798;10.382;2022-07-24T07:32:04;3.20;;;2.10;;
12511;SDS011;6321;53.798;10.382;2022-07-24T07:34:30;2.83;;;2.30;;
12511;SDS011;6321;53.798;10.382;2022-07-24T07:36:56;7.03;;;2.60;;
12511;SDS011;6321;53.798;10.382;2022-07-24T07:39:22;4.23;;;2.60;;
12511;SDS011;6321;53.798;10.382;2022-07-24T07:41:48;4.73;;;2.50;;
12511;SDS011;6321;53.798;10.382;2022-07-24T07:44:14;2.93;;;2.73;;
12511;SDS011;6321;53.798;10.382;2022-07-24T07:46:40;4.73;;;2.40;;
12511;SDS011;6321;53.798;10.382;2022-07-24T07:49:06;4.33;;;2.63;;
12511;SDS011;6321;53.798;10.382;2022-07-24T07:51:32;3.60;;;2.40;;
12511;SDS011;6321;53.798;10.382;2022-07-24T07:53:58;2.90;;;2.33;;
12511;SDS011;6321;53.798;10.382;2022-07-24T07:56:24;3.63;;;2.23;;
12511;SDS011;6321;53.798;10.382;2022-07-24T07:58:50;4.17;;;2.30;;
12511;SDS011;6321;53.798;10.382;2022-07-24T08:01:16;2.20;;;2.00;;
12511;SDS011;6321;53.798;10.382;2022-07-24T08:03:42;2.60;;;2.17;;
12511;SDS011;6321;53.798;10.382;2022-07-24T08:06:08;3.20;;;2.00;;
12511;SDS011;6321;53.798;10.382;2022-07-24T08:08:34;3.00;;;2.47;;
12511;SDS011;6321;53.798;10.382;2022-07-24T08:11:00;2.87;;;2.07;;
12511;SDS011;6321;53.798;10.382;2022-07-24T08:13:26;2.30;;;2.10;;
12511;SDS011;6321;53.798;10.382;2022-07-24T08:15:52;2.40;;;2.20;;
12511;SDS011;6321;53.798;10.382;2022-07-24T08:18:18;2.37;;;2.20;;
12511;SDS011;6321;53.798;10.382;2022-07-24T08:20:44;2.70;;;2.50;;
12511;SDS011;6321;53.798;10.382;2022-07-24T08:23:10;2.20;;;2.00;;
12511;SDS011;6321;53.798;10.382;2022-07-24T08:25:36;2.77;;;2.30;;
12511;SDS011;6321;53.798;10.382;2022-07-24T08:28:02;2.30;;;2.10;;
12511;SDS011;6321;53.798;10.382;2022-07-24T08:30:28;2.73;;;2.20;;
12511;SDS011;6321;53.798;10.382;2022-07-24T08:32:54;4.90;;;2.90;;
12511;SDS011;6321;53.798;10.382;2022-07-24T08:35:20;3.60;;;2.60;;
12511;SDS011;6321;53.798;10.382;2022-07-24T08:37:47;2.73;;;2.30;;
12511;SDS011;6321;53.798;10.382;2022-07-24T08:40:13;4.57;;;2.20;;
12511;SDS011;6321;53.798;10.382;2022-07-24T08:42:40;4.70;;;2.87;;
12511;SDS011;6321;53.798;10.382;2022-07-24T08:45:06;3.20;;;2.47;;
12511;SDS011;6321;53.798;10.382;2022-07-24T08:47:32;3.10;;;2.20;;
12511;SDS011;6321;53.798;10.382;2022-07-24T08:49:58;3.40;;;2.00;;
12511;SDS011;6321;53.798;10.382;2022-07-24T08:52:25;3.00;;;2.10;;
12511;SDS011;6321;53.798;10.382;2022-07-24T08:54:51;4.67;;;2.10;;
12511;SDS011;6321;53.798;10.382;2022-07-24T08:57:17;2.97;;;2.07;;
12511;SDS011;6321;53.798;10.382;2022-07-24T08:59:43;3.80;;;2.57;;
12511;SDS011;6321;53.798;10.382;2022-07-24T09:02:09;4.77;;;2.37;;
12511;SDS011;6321;53.798;10.382;2022-07-24T09:04:36;2.53;;;2.30;;
12511;SDS011;6321;53.798;10.382;2022-07-24T09:07:04;4.30;;;2.70;;
12511;SDS011;6321;53.798;10.382;2022-07-24T09:09:30;3.13;;;2.40;;
12511;SDS011;6321;53.798;10.382;2022-07-24T09:12:15;2.50;;;2.30;;
12511;SDS011;6321;53.798;10.382;2022-07-24T09:14:43;2.40;;;2.20;;
12511;SDS011;6321;53.798;10.382;2022-07-24T09:17:10;3.23;;;2.50;;
12511;SDS011;6321;53.798;10.382;2022-07-24T09:22:38;2.57;;;2.33;;
12511;SDS011;6321;53.798;10.382;2022-07-24T09:25:14;2.47;;;2.27;;
12511;SDS011;6321;53.798;10.382;2022-07-24T09:27:50;2.43;;;2.20;;
12511;SDS011;6321;53.798;10.382;2022-07-24T09:30:27;3.13;;;2.30;;
12511;SDS011;6321;53.798;10.382;2022-07-24T09:32:54;2.60;;;2.40;;
12511;SDS011;6321;53.798;10.382;2022-07-24T09:35:22;4.07;;;2.60;;
12511;SDS011;6321;53.798;10.382;2022-07-24T09:37:54;2.83;;;2.20;;
12511;SDS011;6321;53.798;10.382;2022-07-24T09:40:21;6.37;;;2.60;;
12511;SDS011;6321;53.798;10.382;2022-07-24T09:42:47;3.63;;;2.30;;
12511;SDS011;6321;53.798;10.382;2022-07-24T09:45:13;2.80;;;2.30;;
12511;SDS011;6321;53.798;10.382;2022-07-24T09:47:39;4.80;;;2.40;;
12511;SDS011;6321;53.798;10.382;2022-07-24T09:50:12;3.10;;;2.50;;
12511;SDS011;6321;53.798;10.382;2022-07-24T09:52:38;3.03;;;2.40;;
12511;SDS011;6321;53.798;10.382;2022-07-24T09:55:18;3.90;;;2.90;;
12511;SDS011;6321;53.798;10.382;2022-07-24T09:57:44;5.53;;;2.73;;
12511;SDS011;6321;53.798;10.382;2022-07-24T10:00:10;2.93;;;2.70;;
12511;SDS011;6321;53.798;10.382;2022-07-24T10:02:36;2.60;;;2.40;;
12511;SDS011;6321;53.798;10.382;2022-07-24T10:05:03;4.57;;;2.60;;
12511;SDS011;6321;53.798;10.382;2022-07-24T10:07:29;2.93;;;2.70;;
12511;SDS011;6321;53.798;10.382;2022-07-24T10:09:56;3.50;;;2.93;;
12511;SDS011;6321;53.798;10.382;2022-07-24T10:12:23;4.63;;;2.80;;
12511;SDS011;6321;53.798;10.382;2022-07-24T10:14:50;4.07;;;2.73;;
12511;SDS011;6321;53.798;10.382;2022-07-24T10:17:16;3.40;;;2.80;;
12511;SDS011;6321;53.798;10.382;2022-07-24T10:19:47;3.17;;;2.53;;
12511;SDS011;6321;53.798;10.382;2022-07-24T10:22:14;3.30;;;3.10;;
12511;SDS011;6321;53.798;10.382;2022-07-24T10:27:27;3.90;;;3.23;;
12511;SDS011;6321;53.798;10.382;2022-07-24T10:29:54;3.60;;;3.20;;
12511;SDS011;6321;53.798;10.382;2022-07-24T10:32:21;4.23;;;3.43;;
12511;SDS011;6321;53.798;10.382;2022-07-24T10:42:20;4.40;;;3.00;;
12511;SDS011;6321;53.798;10.382;2022-07-24T10:47:31;3.20;;;3.00;;
12511;SDS011;6321;53.798;10.382;2022-07-24T10:49:57;3.93;;;3.50;;
12511;SDS011;6321;53.798;10.382;2022-07-24T10:52:24;3.70;;;3.40;;
12511;SDS011;6321;53.798;10.382;2022-07-24T10:57:45;4.57;;;3.70;;
12511;SDS011;6321;53.798;10.382;2022-07-24T11:00:26;5.17;;;3.67;;
12511;SDS011;6321;53.798;10.382;2022-07-24T11:02:56;6.63;;;3.30;;
12511;SDS011;6321;53.798;10.382;2022-07-24T11:10:49;4.97;;;3.90;;
12511;SDS011;6321;53.798;10.382;2022-07-24T11:18:42;4.23;;;3.87;;
12511;SDS011;6321;53.798;10.382;2022-07-24T11:21:28;4.30;;;3.70;;
12511;SDS011;6321;53.798;10.382;2022-07-24T11:26:41;5.50;;;3.90;;
12511;SDS011;6321;53.798;10.382;2022-07-24T11:29:14;4.37;;;3.90;;
12511;SDS011;6321;53.798;10.382;2022-07-24T11:31:44;4.17;;;3.87;;
12511;SDS011;6321;53.798;10.382;2022-07-24T11:34:10;5.50;;;4.63;;
12511;SDS011;6321;53.798;10.382;2022-07-24T11:36:39;5.73;;;4.90;;
12511;SDS011;6321;53.798;10.382;2022-07-24T11:39:05;5.57;;;5.00;;
12511;SDS011;6321;53.798;10.382;2022-07-24T11:41:44;5.17;;;4.67;;
12511;SDS011;6321;53.798;10.382;2022-07-24T11:44:11;4.60;;;4.20;;
12511;SDS011;6321;53.798;10.382;2022-07-24T11:46:38;5.97;;;4.47;;
12511;SDS011;6321;53.798;10.382;2022-07-24T11:49:08;4.67;;;4.27;;
12511;SDS011;6321;53.798;10.382;2022-07-24T11:51:44;6.27;;;4.63;;
12511;SDS011;6321;53.798;10.382;2022-07-24T11:54:11;4.77;;;4.37;;
12511;SDS011;6321;53.798;10.382;2022-07-24T11:56:37;5.50;;;5.10;;
12511;SDS011;6321;53.798;10.382;2022-07-24T11:59:03;5.33;;;4.60;;
12511;SDS011;6321;53.798;10.382;2022-07-24T12:01:29;4.53;;;4.13;;
12511;SDS011;6321;53.798;10.382;2022-07-24T12:03:56;4.73;;;4.33;;
12511;SDS011;6321;53.798;10.382;2022-07-24T12:06:22;4.80;;;4.40;;
12511;SDS011;6321;53.798;10.382;2022-07-24T12:08:48;4.57;;;4.17;;
12511;SDS011;6321;53.798;10.382;2022-07-24T12:11:21;5.40;;;4.90;;
12511;SDS011;6321;53.798;10.382;2022-07-24T12:13:47;5.20;;;4.80;;
12511;SDS011;6321;53.798;10.382;2022-07-24T12:16:26;5.37;;;4.83;;
12511;SDS011;6321;53.798;10.382;2022-07-24T12:19:10;4.67;;;4.33;;
12511;SDS011;6321;53.798;10.382;2022-07-24T12:21:36;5.90;;;5.40;;
12511;SDS011;6321;53.798;10.382;2022-07-24T12:24:02;5.33;;;4.83;;
12511;SDS011;6321;53.798;10.382;2022-07-24T12:26:28;5.63;;;5.07;;
12511;SDS011;6321;53.798;10.382;2022-07-24T12:29:09;6.23;;;5.20;;
12511;SDS011;6321;53.798;10.382;2022-07-24T12:31:35;6.80;;;5.03;;
12511;SDS011;6321;53.798;10.382;2022-07-24T12:34:01;5.83;;;5.07;;
12511;SDS011;6321;53.798;10.382;2022-07-24T12:36:29;5.93;;;5.33;;
12511;SDS011;6321;53.798;10.382;2022-07-24T12:38:55;6.13;;;5.03;;
12511;SDS011;6321;53.798;10.382;2022-07-24T12:41:22;5.73;;;5.33;;
12511;SDS011;6321;53.798;10.382;2022-07-24T12:46:18;5.87;;;5.30;;
12511;SDS011;6321;53.798;10.382;2022-07-24T12:56:43;5.57;;;5.13;;
12511;SDS011;6321;53.798;10.382;2022-07-24T12:59:09;6.60;;;5.87;;
12511;SDS011;6321;53.798;10.382;2022-07-24T13:01:47;6.47;;;5.97;;
12511;SDS011;6321;53.798;10.382;2022-07-24T13:04:15;6.43;;;5.40;;
12511;SDS011;6321;53.798;10.382;2022-07-24T13:06:43;6.80;;;5.63;;
12511;SDS011;6321;53.798;10.382;2022-07-24T13:09:11;6.33;;;5.80;;
12511;SDS011;6321;53.798;10.382;2022-07-24T13:11:38;7.73;;;5.40;;
12511;SDS011;6321;53.798;10.382;2022-07-24T13:14:04;7.17;;;5.70;;
12511;SDS011;6321;53.798;10.382;2022-07-24T13:16:31;6.20;;;5.10;;
12511;SDS011;6321;53.798;10.382;2022-07-24T13:19:00;5.90;;;5.40;;
12511;SDS011;6321;53.798;10.382;2022-07-24T13:21:26;6.43;;;5.30;;
12511;SDS011;6321;53.798;10.382;2022-07-24T13:23:53;6.50;;;5.47;;
12511;SDS011;6321;53.798;10.382;2022-07-24T13:26:19;6.27;;;5.60;;
12511;SDS011;6321;53.798;10.382;2022-07-24T13:28:45;5.30;;;4.80;;
12511;SDS011;6321;53.798;10.382;2022-07-24T13:31:11;5.70;;;5.30;;
12511;SDS011;6321;53.798;10.382;2022-07-24T13:33:37;5.53;;;5.03;;
12511;SDS011;6321;53.798;10.382;2022-07-24T13:36:03;6.47;;;4.87;;
12511;SDS011;6321;53.798;10.382;2022-07-24T13:38:30;7.10;;;5.70;;
12511;SDS011;6321;53.798;10.382;2022-07-24T13:40:56;5.40;;;4.90;;
12511;SDS011;6321;53.798;10.382;2022-07-24T13:43:21;5.50;;;4.97;;
12511;SDS011;6321;53.798;10.382;2022-07-24T13:45:48;5.50;;;4.97;;
12511;SDS011;6321;53.798;10.382;2022-07-24T13:48:14;5.43;;;5.03;;
12511;SDS011;6321;53.798;10.382;2022-07-24T13:50:40;5.07;;;4.67;;
12511;SDS011;6321;53.798;10.382;2022-07-24T13:53:06;5.13;;;4.63;;
12511;SDS011;6321;53.798;10.382;2022-07-24T13:55:32;5.80;;;5.10;;
12511;SDS011;6321;53.798;10.382;2022-07-24T13:57:58;9.67;;;5.40;;
12511;SDS011;6321;53.798;10.382;2022-07-24T14:00:24;9.43;;;5.20;;
12511;SDS011;6321;53.798;10.382;2022-07-24T14:02:50;5.37;;;4.97;;
12511;SDS011;6321;53.798;10.382;2022-07-24T14:05:22;5.67;;;4.47;;
12511;SDS011;6321;53.798;10.382;2022-07-24T14:07:49;4.93;;;4.53;;
12511;SDS011;6321;53.798;10.382;2022-07-24T14:10:15;8.47;;;4.87;;
12511;SDS011;6321;53.798;10.382;2022-07-24T14:12:41;5.90;;;4.70;;
12511;SDS011;6321;53.798;10.382;2022-07-24T14:15:07;5.43;;;4.93;;
12511;SDS011;6321;53.798;10.382;2022-07-24T14:17:37;4.90;;;4.50;;
12511;SDS011;6321;53.798;10.382;2022-07-24T14:20:03;6.17;;;5.20;;
12511;SDS011;6321;53.798;10.382;2022-07-24T14:22:30;5.30;;;4.80;;
12511;SDS011;6321;53.798;10.382;2022-07-24T14:24:56;5.10;;;4.70;;
12511;SDS011;6321;53.798;10.382;2022-07-24T14:27:22;5.63;;;5.10;;
12511;SDS011;6321;53.798;10.382;2022-07-24T14:29:48;6.20;;;5.60;;
12511;SDS011;6321;53.798;10.382;2022-07-24T14:32:14;5.27;;;4.77;;
12511;SDS011;6321;53.798;10.382;2022-07-24T14:34:40;5.20;;;4.70;;
12511;SDS011;6321;53.798;10.382;2022-07-24T14:37:05;6.50;;;4.90;;
12511;SDS011;6321;53.798;10.382;2022-07-24T14:39:31;5.70;;;5.27;;
12511;SDS011;6321;53.798;10.382;2022-07-24T14:41:58;6.30;;;5.50;;
12511;SDS011;6321;53.798;10.382;2022-07-24T14:44:24;5.57;;;5.17;;
12511;SDS011;6321;53.798;10.382;2022-07-24T14:46:50;4.72;;;4.43;;
12511;SDS011;6321;53.798;10.382;2022-07-24T14:49:15;5.90;;;5.30;;
12511;SDS011;6321;53.798;10.382;2022-07-24T14:51:41;5.30;;;4.90;;
12511;SDS011;6321;53.798;10.382;2022-07-24T14:54:08;4.95;;;4.55;;
12511;SDS011;6321;53.798;10.382;2022-07-24T14:56:34;5.00;;;4.60;;
12511;SDS011;6321;53.798;10.382;2022-07-24T14:59:00;5.55;;;5.07;;
12511;SDS011;6321;53.798;10.382;2022-07-24T15:01:27;4.57;;;4.25;;
12511;SDS011;6321;53.798;10.382;2022-07-24T15:03:53;5.97;;;5.40;;
12511;SDS011;6321;53.798;10.382;2022-07-24T15:06:19;5.07;;;4.67;;
12511;SDS011;6321;53.798;10.382;2022-07-24T15:08:45;5.63;;;5.18;;
12511;SDS011;6321;53.798;10.382;2022-07-24T15:11:11;8.00;;;5.07;;
12511;SDS011;6321;53.798;10.382;2022-07-24T15:13:37;5.75;;;5.25;;
12511;SDS011;6321;53.798;10.382;2022-07-24T15:16:05;5.45;;;4.88;;
12511;SDS011;6321;53.798;10.382;2022-07-24T15:18:31;5.18;;;4.40;;
12511;SDS011;6321;53.798;10.382;2022-07-24T15:20:57;5.97;;;5.32;;
12511;SDS011;6321;53.798;10.382;2022-07-24T15:23:23;5.00;;;4.60;;
12511;SDS011;6321;53.798;10.382;2022-07-24T15:25:49;7.03;;;4.80;;
12511;SDS011;6321;53.798;10.382;2022-07-24T15:28:15;6.65;;;5.20;;